Time;durP1;ratioP1;P1;durP2;ratioP2;P2;SDS_P1;SDS_P2;PMS_P1;PMS_P2;Temp;Humidity;BMP_temperature;BMP_pressure;BME280_temperature;BME280_humidity;BME280_pressure;Samples;Min_cycle;Max_cycle;Signal;HPM_P1;HPM_P2
2022/11/28 00:01:15;;;;;;;14.53;8.67;;;8.90;42.20;;;;;;5015800;28;20185;-51
2022/11/28 00:03:40;;;;;;;14.50;9.40;;;8.90;42.20;;;;;;5015854;28;20205;-51
2022/11/28 00:06:07;;;;;;;14.13;8.73;;;8.90;42.00;;;;;;5015744;28;20206;-51
2022/11/28 00:08:34;;;;;;;14.32;9.05;;;8.90;42.00;;;;;;5015439;28;20201;-51
2022/11/28 00:11:04;;;;;;;24.23;9.57;;;8.90;42.00;;;;;;5015636;28;20171;-51
2022/11/28 00:13:31;;;;;;;12.82;8.45;;;9.00;42.00;;;;;;5015883;28;20182;-51
2022/11/28 00:15:58;;;;;;;14.05;8.93;;;8.90;41.90;;;;;;5015787;28;20220;-51
2022/11/28 00:18:24;;;;;;;17.50;9.73;;;8.90;41.80;;;;;;5015370;28;20201;-51
2022/11/28 00:20:50;;;;;;;21.00;9.53;;;8.90;41.70;;;;;;5015442;28;20189;-51
2022/11/28 00:23:16;;;;;;;15.30;8.90;;;8.80;41.60;;;;;;5015663;28;20558;-51
2022/11/28 00:25:42;;;;;;;13.23;7.70;;;8.80;41.70;;;;;;5015599;28;20473;-51
2022/11/28 00:28:07;;;;;;;13.80;9.27;;;8.80;41.90;;;;;;5014901;28;20492;-51
2022/11/28 00:30:37;;;;;;;13.40;9.10;;;8.80;41.80;;;;;;5015112;28;20179;-51
2022/11/28 00:33:03;;;;;;;15.30;9.05;;;8.80;41.60;;;;;;5015223;28;20179;-51
2022/11/28 00:35:28;;;;;;;14.00;8.90;;;8.70;41.80;;;;;;5015234;28;20170;-51
2022/11/28 00:37:54;;;;;;;13.70;9.10;;;8.80;41.80;;;;;;5015143;28;20466;-51
2022/11/28 00:40:20;;;;;;;11.77;8.40;;;8.70;41.50;;;;;;5014979;28;20198;-51
2022/11/28 00:42:46;;;;;;;14.10;8.00;;;8.70;41.70;;;;;;5015259;28;20180;-51
2022/11/28 00:45:12;;;;;;;12.80;7.60;;;8.70;42.00;;;;;;5014937;28;20595;-51
2022/11/28 00:47:38;;;;;;;14.80;8.57;;;8.70;41.70;;;;;;5014590;28;20241;-51
2022/11/28 00:50:04;;;;;;;14.27;9.30;;;8.70;41.60;;;;;;5015077;28;20412;-51
2022/11/28 00:52:31;;;;;;;17.95;7.57;;;8.70;41.70;;;;;;5014940;28;20176;-51
2022/11/28 00:54:57;;;;;;;17.10;8.68;;;8.80;41.40;;;;;;5014824;28;20171;-51
2022/11/28 00:57:23;;;;;;;17.90;9.03;;;8.70;41.30;;;;;;5014748;28;20238;-51
2022/11/28 00:59:48;;;;;;;10.83;7.33;;;8.70;41.60;;;;;;5014438;28;20195;-51
2022/11/28 01:02:14;;;;;;;14.53;7.70;;;8.60;41.90;;;;;;5014830;28;20175;-51
2022/11/28 01:04:40;;;;;;;18.17;7.77;;;8.70;41.50;;;;;;5014718;28;20178;-51
2022/11/28 01:07:06;;;;;;;10.10;7.00;;;8.70;41.50;;;;;;5014560;28;20822;-51
2022/11/28 01:09:31;;;;;;;13.17;7.30;;;8.80;41.30;;;;;;5013909;28;20200;-51
2022/11/28 01:11:57;;;;;;;10.40;6.33;;;8.80;40.90;;;;;;5014839;28;20173;-51
2022/11/28 01:14:24;;;;;;;11.80;7.27;;;8.80;41.10;;;;;;5014585;28;20235;-51
2022/11/28 01:16:50;;;;;;;14.68;7.57;;;8.70;41.00;;;;;;5014426;28;20170;-51
2022/11/28 01:19:16;;;;;;;11.32;7.20;;;8.70;41.10;;;;;;5014170;28;20207;-51
2022/11/28 01:21:42;;;;;;;13.02;8.40;;;8.80;41.00;;;;;;5014293;28;20595;-51
2022/11/28 01:24:09;;;;;;;13.18;7.88;;;8.70;41.20;;;;;;5014424;28;20197;-51
2022/11/28 01:26:38;;;;;;;10.52;7.43;;;8.60;41.30;;;;;;5014459;28;20197;-51
2022/11/28 01:29:04;;;;;;;15.60;7.85;;;8.60;41.10;;;;;;5013791;28;20615;-51
2022/11/28 01:31:30;;;;;;;8.07;6.50;;;8.70;41.30;;;;;;5014117;28;20275;-51
2022/11/28 01:33:56;;;;;;;13.93;8.00;;;8.70;40.90;;;;;;5014063;28;20441;-51
2022/11/28 01:36:23;;;;;;;14.27;8.93;;;8.70;41.10;;;;;;5014000;28;20661;-51
2022/11/28 01:38:49;;;;;;;17.42;9.15;;;8.70;41.00;;;;;;5013947;28;20193;-51
2022/11/28 01:41:20;;;;;;;15.13;8.43;;;8.80;41.10;;;;;;5014149;28;20539;-51
2022/11/28 01:44:06;;;;;;;12.55;7.93;;;8.70;41.10;;;;;;5014115;28;20254;-51
2022/11/28 01:46:33;;;;;;;18.00;11.38;;;8.80;41.10;;;;;;5013815;28;20204;-51
2022/11/28 01:49:26;;;;;;;14.75;9.77;;;8.80;40.90;;;;;;5013701;28;20286;-51
2022/11/28 01:51:57;;;;;;;12.43;8.30;;;8.80;41.00;;;;;;5013356;28;20593;-51
2022/11/28 01:54:25;;;;;;;13.48;8.18;;;8.60;40.90;;;;;;5013878;28;20170;-51
2022/11/28 01:57:02;;;;;;;11.27;8.32;;;8.70;41.20;;;;;;5013660;28;20186;-51
2022/11/28 01:59:35;;;;;;;12.05;8.60;;;8.70;41.10;;;;;;5013404;28;20186;-51
2022/11/28 02:02:07;;;;;;;12.88;8.85;;;8.80;41.10;;;;;;5013868;28;20170;-51
2022/11/28 02:04:33;;;;;;;13.00;8.18;;;8.80;40.80;;;;;;5013524;28;20701;-51
2022/11/28 02:06:59;;;;;;;16.23;9.98;;;8.80;40.80;;;;;;5013648;28;20213;-51
2022/11/28 02:09:25;;;;;;;13.90;9.53;;;8.70;40.70;;;;;;5013205;28;20325;-51
2022/11/28 02:12:13;;;;;;;14.60;8.60;;;8.60;41.10;;;;;;5013357;28;20409;-51
2022/11/28 02:14:54;;;;;;;15.73;9.65;;;8.60;41.10;;;;;;5013551;28;20181;-51
2022/11/28 02:17:20;;;;;;;15.15;10.02;;;8.60;40.90;;;;;;5013359;28;20183;-51
2022/11/28 02:20:04;;;;;;;16.47;9.20;;;8.60;41.10;;;;;;5012929;28;20201;-51
2022/11/28 02:22:54;;;;;;;12.95;7.53;;;8.50;41.20;;;;;;5012913;28;20169;-51
2022/11/28 02:25:54;;;;;;;13.00;8.80;;;8.50;41.30;;;;;;5013152;28;20195;-51
2022/11/28 02:28:57;;;;;;;13.80;9.27;;;8.60;41.20;;;;;;5012709;28;20770;-51
2022/11/28 02:31:41;;;;;;;13.18;8.80;;;8.50;41.30;;;;;;5013018;28;20204;-51
2022/11/28 02:34:22;;;;;;;17.88;10.18;;;8.40;41.30;;;;;;5013190;28;20184;-51
2022/11/28 02:36:59;;;;;;;19.13;8.52;;;8.40;41.40;;;;;;5013241;28;20241;-51
2022/11/28 02:39:51;;;;;;;13.13;8.50;;;8.30;41.50;;;;;;5012876;28;20550;-51
2022/11/28 02:42:24;;;;;;;13.13;8.20;;;8.40;41.50;;;;;;5012835;28;20540;-51
2022/11/28 02:44:53;;;;;;;14.25;8.85;;;8.40;41.30;;;;;;5013315;28;20172;-51
2022/11/28 02:47:32;;;;;;;12.25;8.25;;;8.30;41.40;;;;;;5012601;28;20206;-51
2022/11/28 02:50:07;;;;;;;14.07;8.68;;;8.30;41.40;;;;;;5012667;28;20843;-51
2022/11/28 02:52:44;;;;;;;20.02;11.30;;;8.30;41.40;;;;;;5012955;28;20185;-51
2022/11/28 02:55:12;;;;;;;15.07;9.93;;;8.30;41.60;;;;;;5013009;28;20244;-51
2022/11/28 02:57:40;;;;;;;15.20;9.27;;;8.10;41.90;;;;;;5012208;28;20212;-51
2022/11/28 03:00:32;;;;;;;17.65;9.05;;;8.20;41.80;;;;;;5012641;28;20201;-51
2022/11/28 03:03:27;;;;;;;16.13;10.98;;;8.30;41.70;;;;;;5012665;28;20177;-51
2022/11/28 03:06:19;;;;;;;13.82;9.82;;;8.20;41.50;;;;;;4942193;28;20191;-51
2022/11/28 03:09:10;;;;;;;17.58;9.55;;;8.30;41.70;;;;;;5009136;28;20684;-51
2022/11/28 03:12:14;;;;;;;16.67;10.68;;;8.20;41.60;;;;;;5012536;28;20321;-51
2022/11/28 03:14:52;;;;;;;21.00;10.82;;;8.20;41.60;;;;;;4932658;29;20185;-51
2022/11/28 03:17:18;;;;;;;17.92;9.38;;;8.20;41.90;;;;;;5032193;23;20315;-52
2022/11/28 03:19:57;;;;;;;15.05;9.95;;;8.10;41.90;;;;;;5071684;28;20184;-52
2022/11/28 03:22:40;;;;;;;20.80;10.55;;;8.10;42.00;;;;;;5072264;28;20185;-52
2022/11/28 03:25:42;;;;;;;17.58;10.90;;;8.20;42.00;;;;;;5072009;28;20639;-52
2022/11/28 03:28:23;;;;;;;17.05;10.32;;;8.20;42.00;;;;;;5071925;28;20203;-52
2022/11/28 03:30:57;;;;;;;19.33;10.43;;;8.20;42.00;;;;;;5071972;28;20207;-52
2022/11/28 03:33:26;;;;;;;13.73;10.00;;;8.20;41.90;;;;;;5075820;28;20164;-52
2022/11/28 03:35:58;;;;;;;14.25;9.15;;;8.20;41.80;;;;;;5075996;28;20256;-52
2022/11/28 03:38:30;;;;;;;24.63;9.82;;;8.20;41.90;;;;;;5075903;28;20515;-52
2022/11/28 03:41:01;;;;;;;12.15;9.35;;;8.20;41.90;;;;;;5076008;28;20174;-52
2022/11/28 03:43:35;;;;;;;15.05;8.85;;;8.20;41.90;;;;;;5076149;28;20177;-52
2022/11/28 03:46:07;;;;;;;18.27;10.07;;;8.20;41.90;;;;;;5075854;28;20599;-52
2022/11/28 03:48:39;;;;;;;13.25;10.40;;;8.20;41.90;;;;;;5075640;28;20803;-52
2022/11/28 03:51:16;;;;;;;20.85;10.05;;;8.10;42.20;;;;;;5076335;28;20177;-52
2022/11/28 03:54:03;;;;;;;12.60;9.23;;;8.00;42.20;;;;;;5075741;28;20199;-52
2022/11/28 03:56:44;;;;;;;14.48;10.38;;;8.00;42.30;;;;;;5075638;28;20238;-52
2022/11/28 03:59:22;;;;;;;13.88;8.85;;;8.10;42.40;;;;;;5075544;28;20188;-52
2022/11/28 04:02:21;;;;;;;12.68;8.52;;;8.00;42.40;;;;;;5075529;28;20169;-52
2022/11/28 04:05:16;;;;;;;21.02;11.40;;;8.00;42.40;;;;;;5075544;28;20198;-52
2022/11/28 04:08:10;;;;;;;12.68;7.78;;;8.00;42.50;;;;;;5066070;28;20291;-52
2022/11/28 04:10:44;;;;;;;13.75;8.95;;;7.90;42.70;;;;;;5069551;28;20192;-52
2022/11/28 04:13:35;;;;;;;15.48;8.88;;;7.80;42.80;;;;;;5075397;28;20172;-52
2022/11/28 04:16:09;;;;;;;15.18;8.73;;;7.80;42.90;;;;;;5075112;28;20153;-52
2022/11/28 04:18:56;;;;;;;16.73;9.38;;;7.90;43.10;;;;;;5074987;28;20232;-52
2022/11/28 04:21:26;;;;;;;15.60;10.27;;;7.90;43.00;;;;;;5075199;28;20172;-52
2022/11/28 04:23:55;;;;;;;15.40;9.55;;;7.90;42.90;;;;;;5075196;28;20172;-52
2022/11/28 04:26:32;;;;;;;20.02;11.55;;;7.80;43.30;;;;;;5075255;28;20204;-51
2022/11/28 04:29:00;;;;;;;15.48;9.65;;;7.80;43.40;;;;;;5074772;28;20635;-52
2022/11/28 04:31:27;;;;;;;14.43;9.57;;;7.70;43.60;;;;;;5074989;28;20314;-51
2022/11/28 04:33:59;;;;;;;17.88;10.85;;;7.80;43.40;;;;;;5074957;28;20165;-52
2022/11/28 04:36:27;;;;;;;17.75;10.43;;;7.80;43.70;;;;;;5074917;28;20196;-52
2022/11/28 04:38:55;;;;;;;19.85;11.38;;;7.60;44.10;;;;;;5074588;28;20188;-52
2022/11/28 04:41:46;;;;;;;11.63;9.10;;;7.60;44.10;;;;;;5074732;28;20172;-52
2022/11/28 04:44:31;;;;;;;16.23;11.05;;;7.60;44.10;;;;;;5074332;28;20153;-52
2022/11/28 04:46:59;;;;;;;17.40;10.57;;;7.60;44.30;;;;;;5074699;28;20199;-52
2022/11/28 04:49:28;;;;;;;16.35;10.85;;;7.60;44.30;;;;;;5074483;28;20524;-52
2022/11/28 04:52:17;;;;;;;16.30;10.27;;;7.60;44.30;;;;;;5074598;28;20161;-49
2022/11/28 04:55:04;;;;;;;15.82;10.80;;;7.70;44.40;;;;;;5074819;28;20640;-51
2022/11/28 04:57:50;;;;;;;17.92;11.48;;;7.60;44.40;;;;;;5074453;28;20211;-52
2022/11/28 05:00:18;;;;;;;16.52;11.98;;;7.60;44.50;;;;;;5074438;28;20165;-52
2022/11/28 05:02:48;;;;;;;14.70;11.00;;;7.60;44.40;;;;;;5074655;28;20391;-52
2022/11/28 05:05:20;;;;;;;18.58;11.23;;;7.70;44.50;;;;;;5074669;28;20184;-52
2022/11/28 05:07:46;;;;;;;19.30;11.23;;;7.70;44.30;;;;;;5073981;28;20841;-52
2022/11/28 05:10:14;;;;;;;20.73;11.95;;;7.70;44.50;;;;;;5074337;28;20184;-52
2022/11/28 05:12:40;;;;;;;15.63;10.48;;;7.60;44.50;;;;;;5074239;28;20710;-52
2022/11/28 05:15:06;;;;;;;15.75;11.23;;;7.60;44.60;;;;;;5074190;28;20178;-52
2022/11/28 05:17:32;;;;;;;21.73;11.98;;;7.60;44.60;;;;;;5073959;28;20208;-52
2022/11/28 05:19:58;;;;;;;16.63;12.03;;;7.70;44.80;;;;;;5074013;28;20177;-52
2022/11/28 05:22:24;;;;;;;15.33;9.97;;;7.70;44.70;;;;;;5074095;28;20492;-52
2022/11/28 05:24:51;;;;;;;16.00;9.80;;;7.70;44.70;;;;;;5074044;28;20173;-52
2022/11/28 05:27:17;;;;;;;16.58;10.48;;;7.70;44.90;;;;;;5073700;28;20189;-51
2022/11/28 05:29:45;;;;;;;14.87;10.93;;;7.70;44.80;;;;;;5073785;28;20583;-52
2022/11/28 05:32:11;;;;;;;20.15;11.85;;;7.70;44.80;;;;;;5074019;28;20180;-52
2022/11/28 05:34:37;;;;;;;19.58;12.82;;;7.70;44.80;;;;;;5073883;28;20165;-52
2022/11/28 05:37:04;;;;;;;15.03;11.27;;;7.70;44.80;;;;;;5073705;28;20188;-52
2022/11/28 05:39:30;;;;;;;18.05;11.18;;;7.70;44.70;;;;;;5073494;28;20172;-52
2022/11/28 05:41:57;;;;;;;15.40;11.75;;;7.60;45.00;;;;;;5073588;28;20184;-52
2022/11/28 05:44:23;;;;;;;16.25;12.15;;;7.60;45.00;;;;;;5073636;28;20222;-52
2022/11/28 05:46:48;;;;;;;15.30;11.60;;;7.70;45.00;;;;;;5073410;28;20204;-52
2022/11/28 05:49:14;;;;;;;19.10;12.30;;;7.70;45.00;;;;;;5073239;28;20435;-52
2022/11/28 05:51:40;;;;;;;19.03;10.90;;;7.70;45.10;;;;;;5073500;28;20562;-52
2022/11/28 05:54:06;;;;;;;18.63;11.27;;;7.70;45.10;;;;;;5073403;28;20222;-52
2022/11/28 05:56:32;;;;;;;19.10;10.83;;;7.60;45.20;;;;;;5072400;28;20202;-51
2022/11/28 05:58:57;;;;;;;17.77;10.97;;;7.60;45.30;;;;;;5073107;28;20414;-52
2022/11/28 06:01:25;;;;;;;20.90;11.60;;;7.70;45.20;;;;;;5073245;28;20500;-52
2022/11/28 06:03:56;;;;;;;15.63;11.25;;;7.70;45.00;;;;;;5073188;28;20172;-52
2022/11/28 06:06:23;;;;;;;16.70;11.10;;;7.70;45.10;;;;;;5072896;28;20205;-52
2022/11/28 06:08:52;;;;;;;19.38;11.80;;;7.70;45.10;;;;;;5072852;28;20180;-52
2022/11/28 06:11:22;;;;;;;17.92;11.57;;;7.70;45.00;;;;;;5073041;28;20181;-52
2022/11/28 06:13:48;;;;;;;19.48;10.15;;;7.70;45.00;;;;;;5072950;28;20164;-52
2022/11/28 06:16:16;;;;;;;21.10;11.93;;;7.80;44.80;;;;;;5072747;28;20234;-52
2022/11/28 06:18:42;;;;;;;14.73;10.77;;;7.80;44.80;;;;;;5072689;28;20226;-52
2022/11/28 06:21:10;;;;;;;16.77;12.02;;;7.80;44.90;;;;;;5072840;28;20255;-52
2022/11/28 06:23:37;;;;;;;17.02;10.32;;;7.80;44.90;;;;;;5072763;28;20179;-52
2022/11/28 06:26:05;;;;;;;13.73;10.95;;;7.80;44.80;;;;;;5072675;28;20264;-52
2022/11/28 06:28:32;;;;;;;16.65;10.93;;;7.80;44.90;;;;;;5072613;28;20571;-52
2022/11/28 06:30:57;;;;;;;16.08;10.80;;;7.80;44.90;;;;;;5072743;28;20192;-52
2022/11/28 06:33:23;;;;;;;17.83;10.67;;;7.80;45.00;;;;;;5072645;28;20203;-52
2022/11/28 06:35:49;;;;;;;15.53;10.80;;;7.80;45.00;;;;;;5072472;28;20168;-52
2022/11/28 06:38:15;;;;;;;16.43;10.77;;;7.90;45.00;;;;;;5072274;28;20195;-52
2022/11/28 06:40:40;;;;;;;15.00;11.10;;;8.00;44.90;;;;;;5072714;28;20678;-52
2022/11/28 06:43:06;;;;;;;15.30;10.40;;;8.00;44.80;;;;;;5072485;28;20169;-52
2022/11/28 06:45:33;;;;;;;18.30;11.37;;;8.00;44.80;;;;;;5072470;28;20179;-51
2022/11/28 06:48:00;;;;;;;15.57;10.65;;;8.00;44.70;;;;;;5071997;28;20200;-51
2022/11/28 06:50:26;;;;;;;18.40;11.88;;;8.00;44.50;;;;;;5072250;28;20249;-51
2022/11/28 06:52:54;;;;;;;12.93;10.13;;;8.10;44.50;;;;;;5072341;28;20325;-52
2022/11/28 06:55:19;;;;;;;16.45;10.63;;;8.10;44.40;;;;;;5072203;28;20172;-51
2022/11/28 06:57:45;;;;;;;15.47;10.07;;;8.10;44.50;;;;;;5072270;28;20200;-52
2022/11/28 07:00:11;;;;;;;16.77;9.63;;;8.10;44.40;;;;;;5072225;28;20172;-52
2022/11/28 07:02:37;;;;;;;17.75;10.63;;;8.10;44.50;;;;;;5072262;28;20173;-51
2022/11/28 07:05:03;;;;;;;18.30;10.20;;;8.20;44.40;;;;;;5072198;28;20643;-52
2022/11/28 07:07:29;;;;;;;14.00;10.33;;;8.20;44.40;;;;;;5071700;28;20205;-51
2022/11/28 07:09:54;;;;;;;11.87;8.60;;;8.30;44.30;;;;;;5072139;28;20464;-51
2022/11/28 07:12:20;;;;;;;13.43;9.03;;;8.20;44.20;;;;;;5072280;28;20525;-52
2022/11/28 07:14:46;;;;;;;17.07;9.47;;;8.10;44.40;;;;;;5072101;28;20656;-51
2022/11/28 07:17:12;;;;;;;16.70;10.23;;;8.20;44.20;;;;;;5071781;28;20451;-52
2022/11/28 07:19:37;;;;;;;15.30;9.93;;;8.20;44.20;;;;;;5071753;28;20411;-52
2022/11/28 07:22:03;;;;;;;13.73;9.83;;;8.30;44.20;;;;;;5071942;28;20171;-52
2022/11/28 07:24:29;;;;;;;17.47;11.67;;;8.30;43.90;;;;;;5071952;28;20169;-52
2022/11/28 07:26:55;;;;;;;13.40;9.83;;;8.30;43.90;;;;;;5071815;28;20292;-52
2022/11/28 07:29:23;;;;;;;18.10;9.48;;;8.20;43.80;;;;;;5071771;28;20399;-52
2022/11/28 07:31:49;;;;;;;18.38;10.52;;;8.30;44.00;;;;;;5072147;28;20173;-52
2022/11/28 07:34:15;;;;;;;15.52;8.82;;;8.30;44.10;;;;;;5071755;28;20642;-51
2022/11/28 07:36:41;;;;;;;15.77;9.85;;;8.20;43.90;;;;;;5071758;28;20670;-52
2022/11/28 07:39:09;;;;;;;13.53;9.63;;;8.30;43.90;;;;;;5071766;28;20171;-52
2022/11/28 07:41:35;;;;;;;16.42;9.63;;;8.30;43.90;;;;;;5071867;28;20176;-52
2022/11/28 07:44:03;;;;;;;15.90;9.23;;;8.40;43.80;;;;;;5071792;28;20201;-52
2022/11/28 07:46:30;;;;;;;13.43;9.40;;;8.40;43.50;;;;;;5071660;28;20642;-52
2022/11/28 07:48:56;;;;;;;17.35;10.65;;;8.40;43.60;;;;;;5071438;28;20176;-51
2022/11/28 07:51:24;;;;;;;16.93;9.77;;;8.40;43.50;;;;;;5071712;28;20243;-52
2022/11/28 07:53:50;;;;;;;16.40;10.63;;;8.40;43.70;;;;;;5071974;28;20173;-52
2022/11/28 07:56:19;;;;;;;16.02;10.60;;;8.40;43.70;;;;;;5071600;28;20272;-51
2022/11/28 07:58:46;;;;;;;16.90;10.27;;;8.50;43.50;;;;;;5071496;28;20172;-52
2022/11/28 08:01:19;;;;;;;13.45;9.45;;;8.50;43.40;;;;;;5071625;28;20736;-51
2022/11/28 08:03:45;;;;;;;13.38;8.57;;;8.50;43.40;;;;;;5071597;28;20243;-52
2022/11/28 08:06:12;;;;;;;13.95;9.77;;;8.50;43.40;;;;;;5071813;28;20551;-52
2022/11/28 08:08:38;;;;;;;13.57;8.70;;;8.50;43.40;;;;;;5071331;28;20220;-52
2022/11/28 08:11:06;;;;;;;13.23;9.30;;;8.40;43.60;;;;;;5071532;28;20255;-52
2022/11/28 08:13:33;;;;;;;13.52;9.73;;;8.40;43.50;;;;;;5071514;28;20238;-51
2022/11/28 08:16:11;;;;;;;16.02;10.77;;;8.50;43.80;;;;;;5071216;28;20785;-51
2022/11/28 08:18:36;;;;;;;12.35;8.10;;;8.60;43.70;;;;;;5071640;28;20176;-52
2022/11/28 08:21:17;;;;;;;12.67;8.87;;;8.60;43.20;;;;;;5075139;28;20536;-52
2022/11/28 08:23:46;;;;;;;12.85;9.02;;;8.60;43.20;;;;;;5075188;28;20313;-52
2022/11/28 08:26:15;;;;;;;13.18;9.88;;;8.70;43.40;;;;;;5075287;28;20597;-51
2022/11/28 08:28:42;;;;;;;14.23;9.30;;;8.80;43.00;;;;;;5074685;28;20667;-52
2022/11/28 08:31:09;;;;;;;16.90;8.77;;;8.90;42.90;;;;;;5075217;28;20173;-52
2022/11/28 08:33:34;;;;;;;13.95;9.68;;;8.90;42.90;;;;;;5074839;28;20191;-52
2022/11/28 08:36:04;;;;;;;12.00;8.67;;;8.90;42.70;;;;;;5074808;28;20625;-52
2022/11/28 08:38:30;;;;;;;16.38;10.85;;;8.90;42.30;;;;;;5074614;28;20173;-52
2022/11/28 08:41:04;;;;;;;16.90;11.03;;;9.00;42.40;;;;;;5074813;28;20176;-52
2022/11/28 08:43:30;;;;;;;12.43;8.57;;;9.00;42.10;;;;;;5074777;28;20826;-52
2022/11/28 08:45:56;;;;;;;14.20;10.00;;;9.00;41.90;;;;;;5074818;28;20184;-52
2022/11/28 08:48:24;;;;;;;12.93;8.63;;;9.00;42.10;;;;;;5074348;28;20468;-52
2022/11/28 08:50:51;;;;;;;15.23;10.07;;;9.10;41.90;;;;;;5074911;28;20199;-52
2022/11/28 08:53:16;;;;;;;15.35;9.25;;;9.20;41.80;;;;;;5074563;28;20226;-51
2022/11/28 08:55:45;;;;;;;16.30;10.00;;;9.20;41.40;;;;;;5074524;28;20168;-51
2022/11/28 08:58:12;;;;;;;17.50;10.48;;;9.20;41.60;;;;;;5074278;28;20184;-52
2022/11/28 09:00:38;;;;;;;15.63;8.77;;;9.20;41.60;;;;;;5074441;28;20187;-52
2022/11/28 09:03:04;;;;;;;17.23;10.07;;;9.10;41.80;;;;;;5074438;28;20172;-52
2022/11/28 09:05:30;;;;;;;13.73;9.60;;;9.20;41.90;;;;;;5073169;28;20182;-52
2022/11/28 09:07:56;;;;;;;16.55;10.30;;;9.20;41.90;;;;;;5073941;28;20466;-52
2022/11/28 09:10:23;;;;;;;13.98;8.90;;;9.10;41.80;;;;;;5074192;28;20266;-52
2022/11/28 09:12:50;;;;;;;18.90;10.95;;;9.20;41.90;;;;;;5074188;28;20174;-52
2022/11/28 09:15:17;;;;;;;15.05;10.30;;;9.20;41.30;;;;;;5074457;28;20182;-52
2022/11/28 09:17:42;;;;;;;15.45;9.48;;;9.10;42.30;;;;;;5073765;28;20227;-52
2022/11/28 09:20:08;;;;;;;16.20;10.10;;;9.20;41.90;;;;;;5074072;28;20172;-52
2022/11/28 09:22:34;;;;;;;20.80;11.30;;;9.30;41.50;;;;;;5073947;28;20671;-52
2022/11/28 09:25:00;;;;;;;20.10;11.73;;;9.20;41.60;;;;;;5074056;28;20187;-52
2022/11/28 09:27:26;;;;;;;15.30;10.30;;;9.20;41.70;;;;;;5074050;28;20255;-52
2022/11/28 09:29:51;;;;;;;15.47;10.50;;;9.10;41.90;;;;;;5073526;28;20166;-51
2022/11/28 09:32:17;;;;;;;19.17;11.30;;;9.10;41.90;;;;;;5073817;28;20163;-52
2022/11/28 09:34:43;;;;;;;24.00;12.00;;;9.20;42.10;;;;;;5073856;28;20173;-51
2022/11/28 09:37:09;;;;;;;17.07;11.13;;;9.20;41.90;;;;;;5073647;28;20218;-52
2022/11/28 09:39:35;;;;;;;20.38;11.60;;;9.20;41.60;;;;;;5073495;28;20183;-52
2022/11/28 09:42:11;;;;;;;14.40;10.63;;;9.30;42.00;;;;;;5073772;28;20172;-51
2022/11/28 09:44:42;;;;;;;17.08;10.77;;;9.40;41.70;;;;;;5073818;28;20176;-52
2022/11/28 09:47:28;;;;;;;15.57;11.60;;;9.40;41.70;;;;;;5073468;28;20261;-52
2022/11/28 09:50:14;;;;;;;16.27;10.90;;;9.50;41.40;;;;;;5073530;28;20178;-51
2022/11/28 09:52:42;;;;;;;16.02;11.13;;;9.40;41.50;;;;;;5073582;28;20163;-52
2022/11/28 09:55:22;;;;;;;15.75;9.90;;;9.40;41.60;;;;;;5073387;28;20170;-51
2022/11/28 09:57:51;;;;;;;15.18;10.93;;;9.40;41.30;;;;;;5072985;28;20203;-51
2022/11/28 10:00:23;;;;;;;19.63;11.15;;;9.40;41.40;;;;;;5073451;28;20180;-52
2022/11/28 10:03:33;;;;;;;14.02;10.20;;;9.50;41.50;;;;;;5073288;28;20601;-51
2022/11/28 10:06:33;;;;;;;14.73;11.02;;;9.40;41.10;;;;;;5049987;28;20192;-52
2022/11/28 10:09:24;;;;;;;17.92;11.00;;;9.30;41.30;;;;;;5073083;28;20547;-52
2022/11/28 10:12:14;;;;;;;18.73;12.80;;;9.20;41.30;;;;;;5073142;28;20159;-52
2022/11/28 10:14:56;;;;;;;17.02;12.02;;;9.30;41.90;;;;;;5073037;28;20155;-52
2022/11/28 10:17:56;;;;;;;14.60;9.90;;;9.40;41.50;;;;;;5072875;28;20269;-52
2022/11/28 10:20:24;;;;;;;17.85;11.18;;;9.50;41.40;;;;;;5073178;28;20184;-51
2022/11/28 10:23:01;;;;;;;17.95;12.32;;;9.40;41.40;;;;;;5072881;28;20537;-52
2022/11/28 10:25:40;;;;;;;20.67;10.07;;;9.40;41.30;;;;;;5073199;28;20174;-52
2022/11/28 10:28:13;;;;;;;13.38;10.32;;;9.30;41.20;;;;;;5072419;28;20266;-52
2022/11/28 10:30:43;;;;;;;19.25;12.00;;;9.40;41.70;;;;;;5071547;28;20228;-51
2022/11/28 10:33:16;;;;;;;17.42;13.35;;;9.50;41.90;;;;;;5072653;28;20161;-52
2022/11/28 10:35:47;;;;;;;19.77;12.40;;;9.60;41.50;;;;;;5072673;28;20164;-51
2022/11/28 10:38:15;;;;;;;18.05;12.65;;;9.60;41.10;;;;;;5072573;28;20191;-51
2022/11/28 10:40:54;;;;;;;21.88;12.88;;;9.60;41.00;;;;;;5072568;28;20565;-51
2022/11/28 10:44:01;;;;;;;18.13;13.10;;;9.70;41.30;;;;;;5072254;28;20165;-52
2022/11/28 10:46:42;;;;;;;19.92;13.55;;;9.80;41.10;;;;;;5066695;28;20618;-51
2022/11/28 10:49:10;;;;;;;22.48;11.93;;;9.70;41.00;;;;;;5072272;28;20179;-51
2022/11/28 10:52:09;;;;;;;16.85;11.07;;;9.70;41.00;;;;;;5072423;28;20175;-52
2022/11/28 10:54:59;;;;;;;17.88;12.07;;;9.70;40.90;;;;;;5072378;28;20628;-52
2022/11/28 10:57:42;;;;;;;18.48;11.13;;;9.70;41.00;;;;;;5072196;28;20192;-52
2022/11/28 11:00:12;;;;;;;15.88;11.18;;;9.70;41.00;;;;;;5072230;28;20606;-52
2022/11/28 11:02:43;;;;;;;19.77;11.48;;;9.80;40.70;;;;;;5072193;28;20172;-52
2022/11/28 11:05:28;;;;;;;20.77;12.30;;;9.80;41.10;;;;;;5072239;28;20179;-52
2022/11/28 11:08:03;;;;;;;20.35;12.63;;;9.90;40.90;;;;;;5071940;28;20301;-52
2022/11/28 11:10:35;;;;;;;18.15;11.00;;;9.80;40.30;;;;;;5072112;28;20331;-52
2022/11/28 11:13:20;;;;;;;18.25;12.82;;;9.80;40.40;;;;;;5072117;28;20160;-52
2022/11/28 11:15:58;;;;;;;21.70;12.50;;;9.80;40.70;;;;;;5072120;28;20158;-51
2022/11/28 11:18:30;;;;;;;15.90;10.80;;;9.80;40.70;;;;;;5071828;28;20651;-52
2022/11/28 11:21:19;;;;;;;21.40;12.63;;;9.80;40.60;;;;;;5072062;28;20180;-52
2022/11/28 11:23:46;;;;;;;23.88;12.80;;;9.90;40.10;;;;;;5072064;28;20232;-52
2022/11/28 11:26:28;;;;;;;23.35;14.27;;;9.90;40.10;;;;;;5072187;28;20609;-52
2022/11/28 11:28:55;;;;;;;18.10;11.10;;;9.90;39.80;;;;;;5071663;28;20669;-52
2022/11/28 11:31:49;;;;;;;16.98;11.98;;;9.90;40.50;;;;;;5071883;28;20167;-52
2022/11/28 11:34:18;;;;;;;17.33;11.77;;;10.00;41.20;;;;;;5070709;28;20179;-52
2022/11/28 11:36:44;;;;;;;19.38;12.57;;;10.00;40.00;;;;;;5071857;28;20190;-52
2022/11/28 11:39:10;;;;;;;17.52;11.77;;;10.10;40.10;;;;;;5071602;28;20169;-52
2022/11/28 11:41:44;;;;;;;17.20;11.00;;;10.20;40.20;;;;;;5071800;28;20260;-51
2022/11/28 11:44:13;;;;;;;15.80;12.00;;;10.20;39.90;;;;;;5071840;28;20532;-52
2022/11/28 11:47:04;;;;;;;22.73;12.73;;;10.20;39.80;;;;;;5071936;28;20203;-52
2022/11/28 11:49:46;;;;;;;20.30;13.40;;;10.20;39.60;;;;;;5071597;28;20173;-52
2022/11/28 11:52:12;;;;;;;15.55;11.02;;;10.10;39.50;;;;;;5072001;28;20164;-52
2022/11/28 11:54:56;;;;;;;19.07;12.43;;;10.00;40.00;;;;;;5073851;28;20165;-52
2022/11/28 11:57:24;;;;;;;20.67;12.50;;;10.00;40.00;;;;;;5075604;28;20591;-51
2022/11/28 11:59:59;;;;;;;17.35;10.80;;;10.00;40.70;;;;;;5075410;28;20218;-51
2022/11/28 12:02:45;;;;;;;20.92;12.55;;;9.90;39.70;;;;;;5075617;28;20178;-52
2022/11/28 12:05:21;;;;;;;17.38;11.18;;;9.90;40.20;;;;;;5075434;28;20697;-52
2022/11/28 12:08:13;;;;;;;21.25;12.30;;;9.90;40.40;;;;;;5075329;28;20564;-52
2022/11/28 12:10:49;;;;;;;21.33;13.18;;;9.90;39.90;;;;;;5075359;28;20524;-52
2022/11/28 12:13:20;;;;;;;19.65;12.52;;;9.90;40.40;;;;;;5075294;28;20179;-51
2022/11/28 12:15:58;;;;;;;17.30;11.50;;;9.90;40.10;;;;;;5075541;28;20220;-52
2022/11/28 12:19:05;;;;;;;20.15;12.60;;;10.00;39.50;;;;;;5075039;28;20639;-52
2022/11/28 12:22:11;;;;;;;16.67;11.73;;;10.00;39.80;;;;;;5074995;28;20180;-52
2022/11/28 12:25:02;;;;;;;19.75;12.18;;;9.90;39.90;;;;;;5075362;28;20267;-52
2022/11/28 12:27:48;;;;;;;19.20;11.90;;;9.90;40.00;;;;;;5074994;28;20555;-52
2022/11/28 12:30:14;;;;;;;19.38;11.38;;;9.90;39.70;;;;;;5075014;28;20153;-49
2022/11/28 12:33:14;;;;;;;19.53;12.10;;;9.90;40.00;;;;;;5075049;28;20530;-51
2022/11/28 12:35:42;;;;;;;18.75;11.25;;;10.00;39.90;;;;;;5075331;28;20518;-52
2022/11/28 12:38:30;;;;;;;17.30;11.77;;;10.10;39.90;;;;;;5074673;28;20198;-52
2022/11/28 12:41:10;;;;;;;18.65;11.85;;;10.20;39.80;;;;;;5074943;28;20183;-52
2022/11/28 12:43:48;;;;;;;22.23;13.05;;;10.20;39.30;;;;;;5074955;28;20616;-52
2022/11/28 12:46:28;;;;;;;20.67;12.10;;;10.20;39.70;;;;;;5075000;28;20207;-52
2022/11/28 12:49:23;;;;;;;20.30;13.18;;;10.20;39.60;;;;;;5074393;28;20298;-52
2022/11/28 12:52:12;;;;;;;25.85;13.63;;;10.20;39.70;;;;;;5074658;28;20542;-51
2022/11/28 12:54:50;;;;;;;17.50;10.52;;;10.10;39.10;;;;;;5074729;28;20168;-52
2022/11/28 12:57:26;;;;;;;19.55;12.60;;;10.10;39.50;;;;;;5074351;28;20222;-52
2022/11/28 13:00:05;;;;;;;21.75;13.20;;;10.10;39.60;;;;;;5074592;28;20249;-51
2022/11/28 13:02:38;;;;;;;19.10;12.73;;;10.10;39.60;;;;;;5074606;28;20180;-52
2022/11/28 13:05:13;;;;;;;19.38;13.10;;;10.10;39.30;;;;;;5074178;28;20176;-52
2022/11/28 13:08:05;;;;;;;15.05;12.05;;;10.20;39.50;;;;;;5073908;28;20616;-52
2022/11/28 13:10:38;;;;;;;18.70;11.63;;;10.20;39.30;;;;;;5074300;28;20172;-52